Time;durP1;ratioP1;P1;durP2;ratioP2;P2;SDS_P1;SDS_P2;PMS_P1;PMS_P2;Temp;Humidity;BMP_temperature;BMP_pressure;BME280_temperature;BME280_humidity;BME280_pressure;Samples;Min_cycle;Max_cycle;Signal;HPM_P1;HPM_P2
2023/12/22 00:00:32;;;;;;;4.80;1.23;;;;;;;;;;5000373;28;92013;-80
2023/12/22 00:02:58;;;;;;;5.38;1.10;;;;;;;;;;4987468;28;93403;-82
2023/12/22 00:05:28;;;;;;;4.75;1.30;;;;;;;;;;4999107;28;95276;-82
2023/12/22 00:07:57;;;;;;;7.75;1.45;;;;;;;;;;5002302;28;94138;-82
2023/12/22 00:10:24;;;;;;;4.85;1.33;;;;;;;;;;5015876;28;92722;-81
2023/12/22 00:12:50;;;;;;;6.07;1.25;;;;;;;;;;4995798;28;92325;-81
2023/12/22 00:15:17;;;;;;;6.28;1.30;;;;;;;;;;5011926;28;92454;-81
2023/12/22 00:17:43;;;;;;;3.88;1.15;;;;;;;;;;5018137;28;95566;-80
2023/12/22 00:20:13;;;;;;;5.68;1.30;;;;;;;;;;4998950;28;92146;-80
2023/12/22 00:22:40;;;;;;;5.72;1.30;;;;;;;;;;5002021;28;91839;-81
2023/12/22 00:25:09;;;;;;;5.18;1.30;;;;;;;;;;5004183;28;94787;-79
2023/12/22 00:27:36;;;;;;;4.85;1.20;;;;;;;;;;5002519;28;93357;-82
2023/12/22 00:30:03;;;;;;;5.25;1.30;;;;;;;;;;4998497;28;95909;-79
2023/12/22 00:32:29;;;;;;;3.42;1.23;;;;;;;;;;4979909;28;92245;-78
2023/12/22 00:34:58;;;;;;;5.32;1.23;;;;;;;;;;4997930;28;93153;-79
2023/12/22 00:37:24;;;;;;;3.83;1.00;;;;;;;;;;4980512;28;95394;-79
2023/12/22 00:39:51;;;;;;;5.63;1.20;;;;;;;;;;4999747;28;92478;-79
2023/12/22 00:42:20;;;;;;;4.57;1.23;;;;;;;;;;5000365;28;92608;-81
2023/12/22 00:44:46;;;;;;;4.85;1.20;;;;;;;;;;4999346;28;92873;-77
2023/12/22 00:47:13;;;;;;;9.55;1.20;;;;;;;;;;4996653;28;91476;-79
2023/12/22 00:49:40;;;;;;;6.32;1.10;;;;;;;;;;5006760;27;93009;-78
2023/12/22 00:52:06;;;;;;;5.35;1.20;;;;;;;;;;4999750;28;92350;-78
2023/12/22 00:54:33;;;;;;;5.13;1.10;;;;;;;;;;4997929;28;95261;-77
2023/12/22 00:56:59;;;;;;;3.95;1.10;;;;;;;;;;5002457;28;92760;-79
2023/12/22 00:59:26;;;;;;;3.75;0.90;;;;;;;;;;5002331;28;92381;-79
2023/12/22 01:01:53;;;;;;;4.38;1.20;;;;;;;;;;5004411;28;92440;-78
2023/12/22 01:04:19;;;;;;;5.45;1.38;;;;;;;;;;5005593;28;93080;-78
2023/12/22 01:06:46;;;;;;;4.85;0.90;;;;;;;;;;5017943;28;92034;-79
2023/12/22 01:09:14;;;;;;;6.22;0.95;;;;;;;;;;5001689;28;95197;-79
2023/12/22 01:11:41;;;;;;;5.28;1.05;;;;;;;;;;4985025;28;91348;-78
2023/12/22 01:14:08;;;;;;;4.70;1.02;;;;;;;;;;4987945;28;92296;-79
2023/12/22 01:16:34;;;;;;;6.10;1.30;;;;;;;;;;5002832;28;92949;-78
2023/12/22 01:19:01;;;;;;;6.00;1.17;;;;;;;;;;5009152;28;95069;-78
2023/12/22 01:21:27;;;;;;;5.95;1.02;;;;;;;;;;5011371;27;96172;-79
2023/12/22 01:23:54;;;;;;;4.70;0.90;;;;;;;;;;5002757;28;91943;-79
2023/12/22 01:26:20;;;;;;;4.72;0.90;;;;;;;;;;5001897;28;92488;-78
2023/12/22 01:28:47;;;;;;;3.28;0.85;;;;;;;;;;5003741;28;92030;-78
2023/12/22 01:31:13;;;;;;;5.40;1.00;;;;;;;;;;5007115;28;93181;-78
2023/12/22 01:33:40;;;;;;;4.43;1.05;;;;;;;;;;5004359;28;92355;-78
2023/12/22 01:36:07;;;;;;;4.93;1.10;;;;;;;;;;5002934;28;94627;-78
2023/12/22 01:38:33;;;;;;;2.45;0.65;;;;;;;;;;5019580;27;92293;-77
2023/12/22 01:41:00;;;;;;;5.88;0.93;;;;;;;;;;5012131;28;92634;-78
2023/12/22 01:43:26;;;;;;;8.93;1.40;;;;;;;;;;5020824;28;94585;-79
2023/12/22 01:45:58;;;;;;;7.40;1.20;;;;;;;;;;5022806;28;92595;-79
2023/12/22 01:48:25;;;;;;;6.25;1.13;;;;;;;;;;5023728;28;92617;-80
2023/12/22 01:50:53;;;;;;;6.35;1.25;;;;;;;;;;5022066;28;94861;-80
2023/12/22 01:53:20;;;;;;;4.50;1.00;;;;;;;;;;5015196;28;92243;-80
2023/12/22 01:55:48;;;;;;;6.20;1.40;;;;;;;;;;5001844;28;95110;-79
2023/12/22 01:58:14;;;;;;;5.40;1.40;;;;;;;;;;4982158;28;92533;-80
2023/12/22 02:00:42;;;;;;;8.27;1.20;;;;;;;;;;4994478;28;97344;-79
2023/12/22 02:03:08;;;;;;;5.28;1.15;;;;;;;;;;4982059;28;95295;-79
2023/12/22 02:05:35;;;;;;;7.68;1.33;;;;;;;;;;4988770;28;92556;-78
2023/12/22 02:08:02;;;;;;;6.20;1.08;;;;;;;;;;4981117;28;94531;-78
2023/12/22 02:10:28;;;;;;;4.43;1.17;;;;;;;;;;4970359;28;94474;-77
2023/12/22 02:12:55;;;;;;;9.57;1.40;;;;;;;;;;5006819;28;92178;-77
2023/12/22 02:15:21;;;;;;;5.93;1.08;;;;;;;;;;5010487;28;93062;-77
2023/12/22 02:17:51;;;;;;;5.43;1.00;;;;;;;;;;5017210;28;92099;-78
2023/12/22 02:20:19;;;;;;;5.00;1.17;;;;;;;;;;5023079;28;92623;-79
2023/12/22 02:22:50;;;;;;;4.85;0.93;;;;;;;;;;5023635;28;92749;-78
2023/12/22 02:25:17;;;;;;;5.32;1.38;;;;;;;;;;5001604;28;91201;-78
2023/12/22 02:27:52;;;;;;;6.10;1.30;;;;;;;;;;5003222;28;91936;-79
2023/12/22 02:30:23;;;;;;;6.55;1.33;;;;;;;;;;5017208;27;92756;-78
2023/12/22 02:32:52;;;;;;;6.40;1.10;;;;;;;;;;5006965;28;94698;-78
2023/12/22 02:35:20;;;;;;;5.18;1.15;;;;;;;;;;5014425;28;95301;-79
2023/12/22 02:37:47;;;;;;;7.43;1.35;;;;;;;;;;5002010;28;92174;-77
2023/12/22 02:40:14;;;;;;;;;;;;;;;;;;5000342;28;95018;-77
2023/12/22 02:42:41;;;;;;;8.73;1.13;;;;;;;;;;5002410;28;106913;-78
2023/12/22 02:45:13;;;;;;;7.13;1.20;;;;;;;;;;5001815;28;92195;-78
2023/12/22 02:47:39;;;;;;;7.72;1.50;;;;;;;;;;5003210;28;93326;-79
2023/12/22 02:50:07;;;;;;;5.03;1.10;;;;;;;;;;5001668;28;92055;-79
2023/12/22 02:52:33;;;;;;;9.45;1.50;;;;;;;;;;4985458;28;92608;-80
2023/12/22 02:55:00;;;;;;;13.63;1.52;;;;;;;;;;5010865;28;92778;-78
2023/12/22 02:57:26;;;;;;;10.50;1.27;;;;;;;;;;5013156;28;95137;-79
2023/12/22 02:59:53;;;;;;;8.00;1.27;;;;;;;;;;5018250;28;95056;-78
2023/12/22 03:02:19;;;;;;;7.03;1.50;;;;;;;;;;5018715;27;92743;-78
2023/12/22 03:04:46;;;;;;;9.73;1.55;;;;;;;;;;5002027;28;92365;-80
2023/12/22 03:07:13;;;;;;;9.07;1.70;;;;;;;;;;5002752;28;92326;-78
2023/12/22 03:09:40;;;;;;;9.30;1.60;;;;;;;;;;4983424;28;95081;-78
2023/12/22 03:12:07;;;;;;;7.82;1.50;;;;;;;;;;5018089;28;93452;-78
2023/12/22 03:14:34;;;;;;;6.75;1.25;;;;;;;;;;5023133;28;92402;-79
2023/12/22 03:17:01;;;;;;;11.65;1.73;;;;;;;;;;5022470;27;92883;-79
2023/12/22 03:19:27;;;;;;;10.32;1.50;;;;;;;;;;5025189;27;92141;-78
2023/12/22 03:21:54;;;;;;;9.05;1.60;;;;;;;;;;5020433;27;95026;-78
2023/12/22 03:24:22;;;;;;;8.65;1.63;;;;;;;;;;5019280;28;92145;-78
2023/12/22 03:26:51;;;;;;;5.10;1.35;;;;;;;;;;5022034;28;92395;-79
2023/12/22 03:29:17;;;;;;;5.80;1.10;;;;;;;;;;5004081;28;95170;-79
2023/12/22 03:31:45;;;;;;;6.55;1.50;;;;;;;;;;5022077;27;92092;-78
2023/12/22 03:34:11;;;;;;;8.02;1.50;;;;;;;;;;5019390;28;99316;-79
2023/12/22 03:36:38;;;;;;;5.50;1.40;;;;;;;;;;5021074;28;92661;-79
2023/12/22 03:39:05;;;;;;;8.40;1.75;;;;;;;;;;5008637;28;91998;-79
2023/12/22 03:41:31;;;;;;;8.85;1.50;;;;;;;;;;5005806;28;93227;-79
2023/12/22 03:43:58;;;;;;;7.47;1.65;;;;;;;;;;5002354;28;92046;-79
2023/12/22 03:46:24;;;;;;;8.15;1.35;;;;;;;;;;5000061;28;94448;-80
2023/12/22 03:48:51;;;;;;;8.15;1.60;;;;;;;;;;5005732;28;92809;-79
2023/12/22 03:51:18;;;;;;;9.82;1.60;;;;;;;;;;5020924;28;92078;-78
2023/12/22 03:53:44;;;;;;;8.80;1.58;;;;;;;;;;5020976;28;92825;-79
2023/12/22 03:56:11;;;;;;;9.18;1.50;;;;;;;;;;5018996;28;95221;-79
2023/12/22 03:58:38;;;;;;;10.27;2.05;;;;;;;;;;5022115;28;94873;-79
2023/12/22 04:01:07;;;;;;;10.88;2.08;;;;;;;;;;5021996;28;92752;-79
2023/12/22 04:03:34;;;;;;;8.30;1.65;;;;;;;;;;5025132;28;91864;-79
2023/12/22 04:06:04;;;;;;;9.82;1.80;;;;;;;;;;5020350;28;92403;-79
2023/12/22 04:08:30;;;;;;;7.45;1.42;;;;;;;;;;5000278;28;97439;-79
2023/12/22 04:10:57;;;;;;;7.47;1.50;;;;;;;;;;4999985;28;94691;-78
2023/12/22 04:13:23;;;;;;;6.35;1.35;;;;;;;;;;5012990;28;94843;-78
2023/12/22 04:15:50;;;;;;;7.70;1.30;;;;;;;;;;4999688;28;94905;-79
2023/12/22 04:18:17;;;;;;;8.82;1.70;;;;;;;;;;5001259;28;92609;-79
2023/12/22 04:20:44;;;;;;;9.30;1.60;;;;;;;;;;4999841;28;95188;-79
2023/12/22 04:23:11;;;;;;;11.20;1.58;;;;;;;;;;5004322;28;93115;-78
2023/12/22 04:25:37;;;;;;;6.97;1.25;;;;;;;;;;5001112;28;92513;-78
2023/12/22 04:28:04;;;;;;;5.93;1.33;;;;;;;;;;5001413;28;92611;-79
2023/12/22 04:30:30;;;;;;;8.80;1.42;;;;;;;;;;5000596;28;92046;-79
2023/12/22 04:33:00;;;;;;;6.15;1.05;;;;;;;;;;5004204;28;92430;-79
2023/12/22 04:35:27;;;;;;;5.15;1.20;;;;;;;;;;5002347;28;94531;-79
2023/12/22 04:37:53;;;;;;;7.22;1.20;;;;;;;;;;5020336;28;92402;-79
2023/12/22 04:40:20;;;;;;;7.00;1.33;;;;;;;;;;5006722;27;92507;-80
2023/12/22 04:42:46;;;;;;;7.85;1.23;;;;;;;;;;5023740;28;92690;-79
2023/12/22 04:45:13;;;;;;;7.47;1.50;;;;;;;;;;5027409;27;92133;-80
2023/12/22 04:47:40;;;;;;;6.88;1.30;;;;;;;;;;5036449;28;94397;-80
2023/12/22 04:50:06;;;;;;;7.15;1.48;;;;;;;;;;5020192;28;93241;-78
2023/12/22 04:52:33;;;;;;;7.78;1.45;;;;;;;;;;5008404;28;92492;-79
2023/12/22 04:55:00;;;;;;;10.13;1.38;;;;;;;;;;5035081;28;95751;-79
2023/12/22 04:57:26;;;;;;;7.43;1.48;;;;;;;;;;5015245;28;92033;-78
2023/12/22 04:59:53;;;;;;;9.02;1.50;;;;;;;;;;5022880;27;94529;-78
2023/12/22 05:02:19;;;;;;;8.38;1.42;;;;;;;;;;5052519;27;94659;-77
2023/12/22 05:04:46;;;;;;;5.88;1.20;;;;;;;;;;5010048;28;92280;-78
2023/12/22 05:07:12;;;;;;;5.95;1.17;;;;;;;;;;5017773;28;92289;-78
2023/12/22 05:09:40;;;;;;;7.72;1.30;;;;;;;;;;5016777;28;92134;-79
2023/12/22 05:12:07;;;;;;;5.15;1.20;;;;;;;;;;5022690;27;92942;-77
2023/12/22 05:14:34;;;;;;;8.10;1.20;;;;;;;;;;5019173;28;92764;-76
2023/12/22 05:17:01;;;;;;;7.10;1.20;;;;;;;;;;5012688;28;91406;-78
2023/12/22 05:19:27;;;;;;;9.85;1.30;;;;;;;;;;5022546;28;92358;-78
2023/12/22 05:21:56;;;;;;;10.85;1.58;;;;;;;;;;5024054;28;93065;-78
2023/12/22 05:24:23;;;;;;;7.30;1.38;;;;;;;;;;5021022;28;96251;-79
2023/12/22 05:26:49;;;;;;;8.90;1.48;;;;;;;;;;5022360;28;94680;-77
2023/12/22 05:29:16;;;;;;;9.48;1.35;;;;;;;;;;5024892;28;92832;-78
2023/12/22 05:31:43;;;;;;;10.35;1.83;;;;;;;;;;5008448;28;92878;-79
2023/12/22 05:34:10;;;;;;;9.15;1.40;;;;;;;;;;5000759;28;93036;-77
2023/12/22 05:36:37;;;;;;;7.43;1.25;;;;;;;;;;5003461;28;92308;-77
2023/12/22 05:39:03;;;;;;;8.10;1.77;;;;;;;;;;4983688;28;92908;-78
2023/12/22 05:41:32;;;;;;;9.27;1.45;;;;;;;;;;5024120;27;92314;-78
2023/12/22 05:43:59;;;;;;;9.30;1.63;;;;;;;;;;5051926;27;92855;-78
2023/12/22 05:46:26;;;;;;;4.97;1.10;;;;;;;;;;5006070;27;92636;-78
2023/12/22 05:48:52;;;;;;;8.52;1.40;;;;;;;;;;5013519;28;94671;-78
2023/12/22 05:51:22;;;;;;;6.88;1.40;;;;;;;;;;5016707;28;92169;-79
2023/12/22 05:53:49;;;;;;;9.50;1.55;;;;;;;;;;5008709;27;92422;-78
2023/12/22 05:56:22;;;;;;;8.15;1.52;;;;;;;;;;4984482;28;92404;-79
2023/12/22 05:58:50;;;;;;;9.60;1.60;;;;;;;;;;5004268;28;93010;-78
2023/12/22 06:01:18;;;;;;;9.27;1.75;;;;;;;;;;5001887;28;95337;-77
2023/12/22 06:03:45;;;;;;;7.82;1.50;;;;;;;;;;5002260;28;92599;-79
2023/12/22 06:06:12;;;;;;;9.68;1.35;;;;;;;;;;5002954;28;92994;-79
2023/12/22 06:08:39;;;;;;;8.73;1.65;;;;;;;;;;5002386;28;95405;-79
2023/12/22 06:11:05;;;;;;;8.60;1.58;;;;;;;;;;5002843;28;92264;-79
2023/12/22 06:13:32;;;;;;;10.85;1.42;;;;;;;;;;5016680;28;94703;-79
2023/12/22 06:16:00;;;;;;;7.80;1.40;;;;;;;;;;5018664;28;92403;-78
2023/12/22 06:18:26;;;;;;;6.22;1.38;;;;;;;;;;4982710;28;96767;-79
2023/12/22 06:20:54;;;;;;;8.98;1.40;;;;;;;;;;4982203;28;94869;-78
2023/12/22 06:23:21;;;;;;;8.05;1.40;;;;;;;;;;4986248;28;92369;-78
2023/12/22 06:25:48;;;;;;;7.15;1.23;;;;;;;;;;5003352;28;92649;-79
2023/12/22 06:28:16;;;;;;;8.23;1.20;;;;;;;;;;5020054;27;92711;-80
2023/12/22 06:30:44;;;;;;;8.90;1.70;;;;;;;;;;5008984;28;91903;-80
2023/12/22 06:33:11;;;;;;;7.60;1.27;;;;;;;;;;5016803;27;91990;-80
2023/12/22 06:35:40;;;;;;;6.97;1.33;;;;;;;;;;5016264;28;92086;-80
2023/12/22 06:38:07;;;;;;;10.00;1.48;;;;;;;;;;5003578;27;94691;-80
2023/12/22 06:40:34;;;;;;;8.55;1.52;;;;;;;;;;4985893;28;93036;-80
2023/12/22 06:43:01;;;;;;;7.50;1.23;;;;;;;;;;5001437;28;92612;-80
2023/12/22 06:45:28;;;;;;;8.88;1.48;;;;;;;;;;5001703;28;95065;-79
2023/12/22 06:47:54;;;;;;;10.18;1.73;;;;;;;;;;5018348;28;92171;-79
2023/12/22 06:50:21;;;;;;;8.20;1.48;;;;;;;;;;5018604;28;92241;-79
2023/12/22 06:52:49;;;;;;;9.30;1.60;;;;;;;;;;5021212;28;92657;-79
2023/12/22 06:55:16;;;;;;;9.15;1.65;;;;;;;;;;5015546;28;94284;-79
2023/12/22 06:57:43;;;;;;;7.63;1.80;;;;;;;;;;5008733;28;92233;-79
2023/12/22 07:00:11;;;;;;;8.98;1.38;;;;;;;;;;5002754;28;93851;-80
2023/12/22 07:02:38;;;;;;;9.07;1.48;;;;;;;;;;5015152;28;94895;-77
2023/12/22 07:05:26;;;;;;;8.30;1.42;;;;;;;;;;5001154;28;95242;-79
2023/12/22 07:07:54;;;;;;;6.65;1.30;;;;;;;;;;5033174;28;95494;-78
2023/12/22 07:10:20;;;;;;;8.93;1.85;;;;;;;;;;5000205;28;92243;-78
2023/12/22 07:12:47;;;;;;;6.35;1.40;;;;;;;;;;5007184;28;94818;-80
2023/12/22 07:15:13;;;;;;;7.72;1.65;;;;;;;;;;5010418;28;96044;-78
2023/12/22 07:17:40;;;;;;;7.50;1.42;;;;;;;;;;5020395;28;92230;-79
2023/12/22 07:20:07;;;;;;;8.05;1.60;;;;;;;;;;5000572;28;91802;-79
2023/12/22 07:22:33;;;;;;;9.68;1.60;;;;;;;;;;5002508;28;92463;-79
2023/12/22 07:25:00;;;;;;;10.25;1.63;;;;;;;;;;5000643;28;92914;-78
2023/12/22 07:27:26;;;;;;;10.23;1.73;;;;;;;;;;4982377;28;97703;-78
2023/12/22 07:29:54;;;;;;;9.45;1.75;;;;;;;;;;5001075;28;92290;-78
2023/12/22 07:32:20;;;;;;;6.63;1.48;;;;;;;;;;4993539;28;92651;-78
2023/12/22 07:34:47;;;;;;;9.00;1.80;;;;;;;;;;5001580;28;92351;-78
2023/12/22 07:37:14;;;;;;;10.80;1.60;;;;;;;;;;5001983;28;92172;-79
2023/12/22 07:39:45;;;;;;;11.80;2.00;;;;;;;;;;4990931;28;92411;-77
2023/12/22 07:42:11;;;;;;;9.68;2.00;;;;;;;;;;4984177;28;92553;-78
2023/12/22 07:44:38;;;;;;;9.70;1.85;;;;;;;;;;5000817;28;95553;-77
2023/12/22 07:47:07;;;;;;;8.90;2.00;;;;;;;;;;5025752;28;93172;-78
2023/12/22 07:49:33;;;;;;;10.38;2.03;;;;;;;;;;5000008;28;92126;-76
2023/12/22 07:52:00;;;;;;;11.95;1.90;;;;;;;;;;4995201;28;95053;-76
2023/12/22 07:54:29;;;;;;;12.27;2.28;;;;;;;;;;5017054;28;97185;-77
2023/12/22 07:56:56;;;;;;;9.50;1.77;;;;;;;;;;5016878;28;92303;-77
2023/12/22 07:59:22;;;;;;;7.72;1.95;;;;;;;;;;5001384;28;93290;-77
2023/12/22 08:01:57;;;;;;;10.45;1.83;;;;;;;;;;5004571;28;93072;-77
2023/12/22 08:04:24;;;;;;;10.27;1.80;;;;;;;;;;4983071;28;92743;-77
2023/12/22 08:06:51;;;;;;;10.35;1.80;;;;;;;;;;5008707;28;92940;-78
2023/12/22 08:09:18;;;;;;;8.95;1.70;;;;;;;;;;5023555;28;91704;-78
2023/12/22 08:11:46;;;;;;;12.02;2.05;;;;;;;;;;5024012;28;92259;-78
2023/12/22 08:14:13;;;;;;;9.95;1.90;;;;;;;;;;5022880;28;93115;-79
2023/12/22 08:16:40;;;;;;;10.40;1.80;;;;;;;;;;5013669;28;94612;-80
2023/12/22 08:19:07;;;;;;;12.43;1.88;;;;;;;;;;5003990;28;94248;-79
2023/12/22 08:21:34;;;;;;;9.60;1.88;;;;;;;;;;5004108;28;93297;-79
2023/12/22 08:24:11;;;;;;;10.07;1.90;;;;;;;;;;5004496;28;95444;-79
2023/12/22 08:26:48;;;;;;;9.15;1.77;;;;;;;;;;5003690;28;92850;-78
2023/12/22 08:29:15;;;;;;;10.13;1.95;;;;;;;;;;5002914;28;92642;-78
2023/12/22 08:31:43;;;;;;;8.30;1.77;;;;;;;;;;5020541;27;92399;-79
2023/12/22 08:34:10;;;;;;;7.43;1.85;;;;;;;;;;5021367;27;91972;-78
2023/12/22 08:36:37;;;;;;;12.02;1.60;;;;;;;;;;5023446;27;92086;-78
2023/12/22 08:39:07;;;;;;;9.63;1.80;;;;;;;;;;5017424;28;93312;-78
2023/12/22 08:41:37;;;;;;;8.43;1.70;;;;;;;;;;5003781;28;98047;-78
2023/12/22 08:44:04;;;;;;;10.68;2.08;;;;;;;;;;5025416;27;92449;-80
2023/12/22 08:46:32;;;;;;;8.23;1.65;;;;;;;;;;5022138;28;94813;-79
2023/12/22 08:48:59;;;;;;;8.85;1.85;;;;;;;;;;5005249;28;92177;-79
2023/12/22 08:51:26;;;;;;;10.23;1.55;;;;;;;;;;5021474;28;92289;-79
2023/12/22 08:53:56;;;;;;;6.90;1.40;;;;;;;;;;5021047;28;92783;-79
2023/12/22 08:56:23;;;;;;;11.30;2.08;;;;;;;;;;5022697;28;92145;-78
2023/12/22 08:58:54;;;;;;;8.90;1.92;;;;;;;;;;5021793;28;91827;-79
2023/12/22 09:01:21;;;;;;;8.68;1.85;;;;;;;;;;5021394;28;95151;-78
2023/12/22 09:03:48;;;;;;;8.43;2.00;;;;;;;;;;5021641;28;92257;-78
2023/12/22 09:06:15;;;;;;;7.25;1.75;;;;;;;;;;5021928;28;94870;-79
2023/12/22 09:08:42;;;;;;;7.15;1.80;;;;;;;;;;5022806;28;92216;-78
2023/12/22 09:11:12;;;;;;;5.95;1.55;;;;;;;;;;4981424;28;1197312;-78
2023/12/22 09:13:39;;;;;;;6.03;1.50;;;;;;;;;;5023783;28;93032;-79
2023/12/22 09:16:06;;;;;;;8.50;1.60;;;;;;;;;;5021166;27;92346;-79
2023/12/22 09:18:32;;;;;;;6.78;1.60;;;;;;;;;;5022891;27;92772;-79
2023/12/22 09:20:59;;;;;;;;;;;;;;;;;;5022575;27;95182;-78
2023/12/22 09:23:26;;;;;;;8.50;2.00;;;;;;;;;;5025228;27;102471;-78
2023/12/22 09:25:52;;;;;;;6.95;1.70;;;;;;;;;;5024189;27;92287;-77
2023/12/22 09:28:19;;;;;;;6.65;1.70;;;;;;;;;;5023193;28;95451;-78
2023/12/22 09:30:46;;;;;;;7.95;1.48;;;;;;;;;;5020459;28;95212;-78
2023/12/22 09:33:12;;;;;;;7.13;1.60;;;;;;;;;;5022431;28;95255;-80
2023/12/22 09:35:41;;;;;;;6.93;1.40;;;;;;;;;;5005086;28;92535;-80
2023/12/22 09:38:09;;;;;;;7.75;1.65;;;;;;;;;;5022384;28;92806;-81
2023/12/22 09:40:36;;;;;;;5.78;1.65;;;;;;;;;;5021114;28;94705;-81
2023/12/22 09:43:05;;;;;;;6.40;1.60;;;;;;;;;;5022252;28;92405;-81
2023/12/22 09:45:33;;;;;;;7.50;1.40;;;;;;;;;;5023311;28;93454;-78
2023/12/22 09:48:00;;;;;;;4.70;1.20;;;;;;;;;;5021384;28;94881;-78
2023/12/22 09:50:27;;;;;;;6.90;1.50;;;;;;;;;;5021667;28;92202;-79
2023/12/22 09:52:54;;;;;;;4.25;1.40;;;;;;;;;;5002524;28;92121;-79
2023/12/22 09:55:21;;;;;;;7.45;1.50;;;;;;;;;;5009365;28;94466;-79
2023/12/22 09:57:48;;;;;;;6.60;1.50;;;;;;;;;;5026864;27;94874;-78
2023/12/22 10:00:17;;;;;;;3.53;1.13;;;;;;;;;;5006415;28;93500;-78
2023/12/22 10:02:45;;;;;;;4.50;1.23;;;;;;;;;;5034465;28;92534;-79
2023/12/22 10:05:15;;;;;;;4.40;1.23;;;;;;;;;;5033875;27;94948;-79
2023/12/22 10:07:45;;;;;;;4.88;1.20;;;;;;;;;;5037813;27;95111;-80
2023/12/22 10:10:12;;;;;;;6.18;1.40;;;;;;;;;;5019801;27;92600;-80
2023/12/22 10:12:40;;;;;;;4.50;1.27;;;;;;;;;;5007790;28;94807;-79
2023/12/22 10:15:07;;;;;;;5.07;1.45;;;;;;;;;;4993300;28;94494;-80
2023/12/22 10:17:34;;;;;;;4.18;1.08;;;;;;;;;;5008082;28;94464;-80
2023/12/22 10:20:01;;;;;;;4.40;1.23;;;;;;;;;;4995614;28;95453;-76
2023/12/22 10:22:27;;;;;;;4.28;1.15;;;;;;;;;;5005508;28;93638;-79
2023/12/22 10:24:54;;;;;;;5.05;1.30;;;;;;;;;;4999402;28;92200;-79
2023/12/22 10:27:23;;;;;;;4.00;1.20;;;;;;;;;;4999252;28;94667;-79
2023/12/22 10:29:53;;;;;;;4.93;1.30;;;;;;;;;;4999949;28;92382;-78
2023/12/22 10:32:21;;;;;;;4.57;1.20;;;;;;;;;;5002347;28;92401;-78
2023/12/22 10:34:48;;;;;;;3.55;1.10;;;;;;;;;;5013106;28;92566;-78
2023/12/22 10:37:15;;;;;;;3.30;1.08;;;;;;;;;;4990064;28;92349;-79
2023/12/22 10:39:42;;;;;;;4.95;1.20;;;;;;;;;;5012544;28;93530;-78
2023/12/22 10:42:09;;;;;;;4.40;1.10;;;;;;;;;;4991246;28;92904;-78
2023/12/22 10:44:39;;;;;;;5.35;1.20;;;;;;;;;;4986496;28;94583;-77
2023/12/22 10:47:06;;;;;;;4.78;1.13;;;;;;;;;;5000514;28;92693;-77
2023/12/22 10:49:33;;;;;;;3.88;1.00;;;;;;;;;;4999367;28;92714;-78
2023/12/22 10:52:00;;;;;;;5.15;1.20;;;;;;;;;;5001079;28;93347;-79
2023/12/22 10:54:27;;;;;;;4.95;1.25;;;;;;;;;;5001832;28;99406;-79
2023/12/22 10:56:58;;;;;;;3.22;1.10;;;;;;;;;;5007030;28;92912;-78
2023/12/22 10:59:27;;;;;;;3.38;1.00;;;;;;;;;;5005767;28;93167;-78
2023/12/22 11:01:56;;;;;;;4.45;1.02;;;;;;;;;;5015446;28;91433;-79
2023/12/22 11:04:25;;;;;;;5.90;1.20;;;;;;;;;;5019866;27;92421;-79
2023/12/22 11:06:55;;;;;;;3.35;1.00;;;;;;;;;;5014592;28;93260;-81
2023/12/22 11:09:23;;;;;;;2.38;0.90;;;;;;;;;;4997366;28;94767;-81
2023/12/22 11:11:50;;;;;;;3.92;0.93;;;;;;;;;;5001576;28;95134;-80
2023/12/22 11:14:17;;;;;;;4.03;0.93;;;;;;;;;;4997724;28;92821;-81
2023/12/22 11:16:48;;;;;;;3.35;1.10;;;;;;;;;;5008592;28;92102;-80
2023/12/22 11:19:15;;;;;;;4.25;0.90;;;;;;;;;;5011242;28;95103;-81
2023/12/22 11:21:43;;;;;;;4.50;1.00;;;;;;;;;;5020221;27;92234;-80
2023/12/22 11:24:10;;;;;;;3.30;0.90;;;;;;;;;;5007304;28;94074;-81
2023/12/22 11:26:38;;;;;;;5.38;1.17;;;;;;;;;;5021306;28;92071;-79
2023/12/22 11:29:06;;;;;;;3.75;0.90;;;;;;;;;;5002129;28;93111;-80
2023/12/22 11:31:34;;;;;;;4.45;1.00;;;;;;;;;;5020599;27;92343;-80
2023/12/22 11:34:00;;;;;;;;;;;;;;;;;;5019144;27;95149;-79
2023/12/22 11:36:36;;;;;;;2.40;0.80;;;;;;;;;;5021108;28;106724;-81
2023/12/22 11:39:04;;;;;;;3.95;1.00;;;;;;;;;;5023151;27;92279;-76
2023/12/22 11:41:32;;;;;;;3.80;1.00;;;;;;;;;;5019031;28;92653;-77
2023/12/22 11:44:00;;;;;;;2.95;0.95;;;;;;;;;;5019832;28;93222;-77
2023/12/22 11:46:26;;;;;;;3.30;0.90;;;;;;;;;;5000963;28;99385;-78
2023/12/22 11:48:55;;;;;;;3.92;0.93;;;;;;;;;;5018898;28;92440;-78
2023/12/22 11:51:22;;;;;;;4.75;1.00;;;;;;;;;;5036289;28;95185;-76
2023/12/22 11:53:48;;;;;;;2.80;0.80;;;;;;;;;;5019613;27;93140;-77
2023/12/22 11:56:18;;;;;;;4.18;0.95;;;;;;;;;;5013090;28;93115;-78
2023/12/22 11:58:53;;;;;;;3.70;0.90;;;;;;;;;;4997066;28;94612;-77
2023/12/22 12:01:23;;;;;;;6.30;1.00;;;;;;;;;;4990657;28;94789;-78
2023/12/22 12:03:51;;;;;;;3.70;1.02;;;;;;;;;;5018830;27;92978;-77
2023/12/22 12:06:25;;;;;;;3.15;0.90;;;;;;;;;;5000075;28;93760;-77
2023/12/22 12:08:53;;;;;;;3.03;0.90;;;;;;;;;;5012505;28;92170;-78
2023/12/22 12:11:20;;;;;;;4.10;1.00;;;;;;;;;;5010198;28;92436;-77
2023/12/22 12:13:47;;;;;;;2.50;0.90;;;;;;;;;;5003767;28;94279;-77
2023/12/22 12:16:15;;;;;;;4.18;1.00;;;;;;;;;;5001011;28;91575;-77
2023/12/22 12:18:42;;;;;;;2.72;1.00;;;;;;;;;;5000611;28;92051;-77
2023/12/22 12:21:10;;;;;;;4.22;1.05;;;;;;;;;;5000805;28;93219;-77
2023/12/22 12:23:38;;;;;;;4.60;1.10;;;;;;;;;;5001144;28;94676;-77
2023/12/22 12:26:08;;;;;;;4.38;1.00;;;;;;;;;;4999712;28;92619;-78
2023/12/22 12:28:35;;;;;;;2.00;0.60;;;;;;;;;;5000375;28;92175;-76
2023/12/22 12:31:03;;;;;;;3.65;0.98;;;;;;;;;;5000591;28;92497;-78
2023/12/22 12:33:30;;;;;;;2.25;0.80;;;;;;;;;;4998929;28;95481;-78
2023/12/22 12:35:58;;;;;;;2.00;0.80;;;;;;;;;;5000362;28;92093;-79
2023/12/22 12:38:37;;;;;;;4.07;1.00;;;;;;;;;;5000331;28;93238;-79
2023/12/22 12:41:05;;;;;;;2.08;0.80;;;;;;;;;;5001063;28;92365;-79
2023/12/22 12:43:32;;;;;;;2.90;0.80;;;;;;;;;;4980123;28;92247;-78
2023/12/22 12:46:05;;;;;;;3.95;0.85;;;;;;;;;;5000652;28;92719;-78
2023/12/22 12:48:32;;;;;;;2.33;0.80;;;;;;;;;;4999010;28;94683;-79
2023/12/22 12:51:05;;;;;;;2.90;0.80;;;;;;;;;;4998336;28;95223;-79
2023/12/22 12:53:35;;;;;;;1.73;0.80;;;;;;;;;;5003372;28;92573;-79
2023/12/22 12:56:02;;;;;;;3.25;0.90;;;;;;;;;;5003461;28;92326;-81
2023/12/22 12:58:29;;;;;;;3.25;0.80;;;;;;;;;;4999519;28;92751;-78
2023/12/22 13:01:12;;;;;;;2.58;0.80;;;;;;;;;;4983292;28;92704;-78
2023/12/22 13:03:55;;;;;;;3.42;0.80;;;;;;;;;;4983418;28;92065;-77
2023/12/22 13:06:22;;;;;;;3.13;0.80;;;;;;;;;;4999305;28;93574;-78
2023/12/22 13:08:50;;;;;;;3.28;0.80;;;;;;;;;;5002186;28;92345;-77
2023/12/22 13:11:21;;;;;;;3.50;0.85;;;;;;;;;;5002748;28;92943;-77
2023/12/22 13:13:47;;;;;;;4.53;0.88;;;;;;;;;;5000635;28;97975;-78
2023/12/22 13:16:17;;;;;;;3.38;0.90;;;;;;;;;;5003000;28;92306;-78
2023/12/22 13:18:44;;;;;;;3.42;0.82;;;;;;;;;;5003516;28;92719;-78
2023/12/22 13:21:11;;;;;;;3.10;0.93;;;;;;;;;;5001402;28;93938;-78
2023/12/22 13:23:37;;;;;;;3.03;0.70;;;;;;;;;;5004174;28;92540;-79
2023/12/22 13:26:04;;;;;;;4.15;0.98;;;;;;;;;;5001106;28;92641;-78
2023/12/22 13:28:31;;;;;;;4.45;1.00;;;;;;;;;;5006430;28;93027;-77
2023/12/22 13:30:58;;;;;;;3.83;1.00;;;;;;;;;;5003639;28;92730;-78
2023/12/22 13:33:28;;;;;;;3.28;1.00;;;;;;;;;;5002904;28;92475;-78
2023/12/22 13:35:58;;;;;;;5.28;1.00;;;;;;;;;;5002690;28;98315;-76
2023/12/22 13:38:25;;;;;;;2.58;0.90;;;;;;;;;;5000005;28;95048;-78
2023/12/22 13:40:51;;;;;;;4.18;1.00;;;;;;;;;;5008797;28;99490;-78
2023/12/22 13:43:18;;;;;;;4.93;1.00;;;;;;;;;;5012743;28;92032;-78
2023/12/22 13:45:49;;;;;;;3.08;0.80;;;;;;;;;;5001466;28;94828;-78
2023/12/22 13:48:16;;;;;;;4.90;1.10;;;;;;;;;;5002670;28;93100;-80
2023/12/22 13:50:42;;;;;;;3.00;0.95;;;;;;;;;;5006844;28;92124;-77
2023/12/22 13:53:09;;;;;;;4.90;1.05;;;;;;;;;;5001434;28;92507;-78
2023/12/22 13:55:37;;;;;;;;;;;;;;;;;;5003601;28;92136;-79
2023/12/22 13:58:04;;;;;;;2.40;0.80;;;;;;;;;;5004534;28;96191;-78
2023/12/22 14:00:34;;;;;;;3.75;0.88;;;;;;;;;;5009120;28;93100;-78
2023/12/22 14:03:01;;;;;;;5.05;1.10;;;;;;;;;;5015113;28;94926;-78
2023/12/22 14:05:28;;;;;;;4.32;1.00;;;;;;;;;;5001530;28;95598;-79
2023/12/22 14:08:00;;;;;;;4.78;0.95;;;;;;;;;;5002885;28;93057;-79
2023/12/22 14:10:27;;;;;;;3.65;0.93;;;;;;;;;;5019090;28;92438;-78
2023/12/22 14:12:54;;;;;;;3.72;0.82;;;;;;;;;;5022116;28;92624;-78
2023/12/22 14:15:22;;;;;;;4.68;1.13;;;;;;;;;;5002601;28;92176;-78
2023/12/22 14:17:52;;;;;;;3.78;1.00;;;;;;;;;;5017220;28;94323;-78
2023/12/22 14:20:19;;;;;;;3.95;0.93;;;;;;;;;;5000622;28;94256;-78
2023/12/22 14:22:46;;;;;;;3.53;1.00;;;;;;;;;;5007170;28;92241;-78
2023/12/22 14:25:13;;;;;;;2.38;0.85;;;;;;;;;;5009673;28;94599;-78
2023/12/22 14:27:39;;;;;;;4.63;1.00;;;;;;;;;;4999415;28;95526;-79
2023/12/22 14:30:06;;;;;;;3.35;0.90;;;;;;;;;;4998790;28;92662;-78
2023/12/22 14:32:32;;;;;;;3.10;0.95;;;;;;;;;;5002850;28;92313;-79
2023/12/22 14:35:00;;;;;;;3.30;1.00;;;;;;;;;;5013305;28;93223;-78
2023/12/22 14:37:31;;;;;;;2.63;0.98;;;;;;;;;;4991652;28;92776;-79
2023/12/22 14:39:58;;;;;;;4.88;1.15;;;;;;;;;;5002196;28;92965;-78
2023/12/22 14:42:24;;;;;;;5.22;1.10;;;;;;;;;;5003625;28;92644;-78
2023/12/22 14:44:51;;;;;;;4.18;1.17;;;;;;;;;;5016369;28;92708;-79